E24CR-1 Weather Reports


Display with metric or nautical units.
time (UTC)temp
F
wind
direction
speed
MPH
gust
MPH
rain 1hr
in
rain 24hr
in
rain mn
in
humidity
%
barometer
mb
20221207102938 81 0 0.0 0.0 0.00 0.00 0.00 71 952.0
20221207101911 81 0 0.0 0.0 0.00 0.00 0.00 68 952.0
20221207100841 82 0 0.0 0.0 0.00 0.00 0.00 67 952.0
20221207095552 82 0 0.0 0.0 0.00 0.00 0.00 65 952.0
20221207094922 82 0 0.0 0.0 0.00 0.00 0.00 66 952.0
20221207093857 82 0 0.0 0.0 0.00 0.00 0.00 66 952.0
20221207092834 83 0 0.0 0.0 0.00 0.00 0.00 65 952.0
20221207091811 83 0 0.0 0.0 0.00 0.00 0.00 64 952.0
20221207090748 84 0 0.0 0.0 0.00 0.00 0.00 63 952.0
20221207085724 85 0 0.0 0.0 0.00 0.00 0.00 61 952.0
20221207084701 85 0 0.0 0.0 0.00 0.00 0.00 61 952.0
20221207083639 85 0 0.0 0.0 0.00 0.00 0.00 61 952.0
20221207082616 86 0 0.0 0.0 0.00 0.00 0.00 58 952.0
20221207081553 87 0 0.0 0.0 0.00 0.00 0.00 57 952.0
20221207080530 87 0 0.0 0.0 0.00 0.00 0.00 58 952.0
20221207075500 88 0 0.0 0.0 0.00 0.00 0.00 56 952.0
20221207074436 87 0 0.0 0.0 0.00 0.00 0.00 57 952.0
20221207073411 87 0 0.0 0.0 0.00 0.00 0.00 60 952.0
20221207072348 87 0 0.0 0.0 0.00 0.00 0.00 57 952.0
20221207071323 87 0 0.0 0.0 0.00 0.00 0.00 59 952.0
20221207070258 87 0 0.0 0.0 0.00 0.00 0.00 59 952.0
20221207065650 87 0 0.0 0.0 0.00 0.00 0.00 55 952.0
20221207064626 88 0 0.0 0.0 0.00 0.00 0.00 54 953.0
20221207063601 89 0 0.0 0.0 0.00 0.00 0.00 56 953.0
20221207062531 89 0 0.0 0.0 0.00 0.00 0.00 58 953.0
20221207061455 89 0 0.0 0.0 0.00 0.00 0.00 55 953.0
20221207060424 88 0 0.0 0.0 0.00 0.00 0.00 55 953.0
20221207055355 88 0 0.0 0.0 0.00 0.00 0.00 58 954.0
20221207054331 89 0 0.0 0.0 0.00 0.00 0.00 54 954.0
20221207053257 88 0 0.0 0.0 0.00 0.00 0.00 58 954.0
20221207052228 88 0 0.0 0.0 0.00 0.00 0.00 59 954.0
20221207051202 87 0 0.0 0.0 0.00 0.00 0.00 59 954.0
20221207050137 88 0 0.0 0.0 0.00 0.00 0.00 57 955.0
20221207045109 87 0 0.0 0.0 0.00 0.00 0.00 59 955.0
20221207044039 86 0 0.0 0.0 0.00 0.00 0.00 60 955.0
20221207043006 86 0 0.0 0.0 0.00 0.00 0.00 58 955.0
20221207041927 86 0 0.0 0.0 0.00 0.00 0.00 60 955.0
20221207040652 86 0 0.0 0.0 0.00 0.00 0.00 63 956.0
20221207035619 86 0 0.0 0.0 0.00 0.00 0.00 63 956.0
20221207034554 85 0 0.0 0.0 0.00 0.00 0.00 61 956.0
20221207033528 84 0 0.0 0.0 0.00 0.00 0.00 67 956.0
20221207032500 85 0 0.0 0.0 0.00 0.00 0.00 66 956.0
20221207031435 82 0 0.0 0.0 0.00 0.00 0.00 71 956.0
20221207030409 82 0 0.0 0.0 0.00 0.00 0.00 71 956.0
20221207025341 81 0 0.0 0.0 0.00 0.00 0.00 70 956.0
20221207024304 83 0 0.0 0.0 0.00 0.00 0.00 70 956.0
20221207023230 81 0 0.0 0.0 0.00 0.00 0.00 71 956.0
20221207022156 79 0 0.0 0.0 0.00 0.00 0.00 80 957.0
20221207021126 78 0 0.0 0.0 0.00 0.00 0.00 79 957.0
20221207020101 78 0 0.0 0.0 0.00 0.00 0.00 80 957.0
20221207015034 77 0 0.0 0.0 0.00 0.00 0.00 85 956.0
20221207014003 76 0 0.0 0.0 0.00 0.00 0.00 87 956.0
20221207012937 76 0 0.0 0.0 0.00 0.00 0.00 87 956.0
20221207011913 75 0 0.0 0.0 0.00 0.00 0.00 85 956.0
20221207010849 75 0 0.0 0.0 0.00 0.00 0.00 86 956.0
20221207005824 74 0 0.0 0.0 0.00 0.00 0.00 87 956.0
20221207004801 74 0 0.0 0.0 0.00 0.00 0.00 87 956.0
20221207003738 74 0 0.0 0.0 0.00 0.00 0.00 87 956.0
20221207002713 74 0 0.0 0.0 0.00 0.00 0.00 87 956.0
20221207001650 74 0 0.0 0.0 0.00 0.00 0.00 86 955.0
20221207000622 73 0 0.0 0.0 0.00 0.00 0.00 89 955.0
20221206235547 73 0 0.0 0.0 0.00 0.00 0.00 89 955.0
20221206234520 73 0 0.0 0.0 0.00 0.00 0.00 89 955.0
20221206233448 73 0 0.0 0.0 0.00 0.00 0.00 89 955.0
20221206232420 73 0 0.0 0.0 0.00 0.00 0.00 89 955.0
20221206231354 73 0 0.0 0.0 0.00 0.00 0.00 88 955.0
20221206230325 73 0 0.0 0.0 0.00 0.00 0.00 87 955.0
20221206225259 73 0 0.0 0.0 0.00 0.00 0.00 87 954.0
20221206224233 73 0 0.0 0.0 0.00 0.00 0.00 86 954.0
20221206223139 73 0 0.0 0.0 0.00 0.00 0.00 85 954.0
20221206222109 73 0 0.0 0.0 0.00 0.00 0.00 86 954.0
20221206221044 73 0 0.0 0.0 0.00 0.00 0.00 85 954.0
20221206220020 73 0 0.0 0.0 0.00 0.00 0.00 85 954.0
20221206214957 73 0 0.0 0.0 0.00 0.00 0.00 85 954.0
20221206213933 73 0 0.0 0.0 0.00 0.00 0.00 86 954.0
20221206212910 72 0 0.0 0.0 0.00 0.00 0.00 86 954.0
20221206211848 72 0 0.0 0.0 0.00 0.00 0.00 86 954.0
20221206210824 72 0 0.0 0.0 0.00 0.00 0.00 86 954.0
20221206205801 73 0 0.0 0.0 0.00 0.00 0.00 87 954.0
20221206204738 73 0 0.0 0.0 0.00 0.00 0.00 84 954.0
20221206203713 74 0 0.0 0.0 0.00 0.00 0.00 83 954.0
20221206202650 73 0 0.0 0.0 0.00 0.00 0.00 83 954.0
20221206201625 73 0 0.0 0.0 0.00 0.00 0.00 83 954.0
20221206200602 73 0 0.0 0.0 0.00 0.00 0.00 83 954.0
20221206195537 73 0 0.0 0.0 0.00 0.00 0.00 83 954.0
20221206194514 73 0 0.0 0.0 0.00 0.00 0.00 83 954.0
20221206193451 73 0 0.0 0.0 0.00 0.00 0.00 83 954.0
20221206192428 73 0 0.0 0.0 0.00 0.00 0.00 83 954.0
20221206191404 73 0 0.0 0.0 0.00 0.00 0.00 83 954.0
20221206190341 73 0 0.0 0.0 0.00 0.00 0.00 82 954.0
20221206185318 73 0 0.0 0.0 0.00 0.00 0.00 83 954.0
20221206184255 73 0 0.0 0.0 0.00 0.00 0.00 83 954.0
20221206183231 73 0 0.0 0.0 0.00 0.00 0.00 84 954.0
20221206182208 73 0 0.0 0.0 0.00 0.00 0.00 82 954.0
20221206181145 73 0 0.0 0.0 0.00 0.00 0.00 82 954.0
20221206180119 73 0 0.0 0.0 0.00 0.00 0.00 83 954.0
20221206175055 73 0 0.0 0.0 0.00 0.00 0.00 83 954.0
20221206174033 73 0 0.0 0.0 0.00 0.00 0.00 82 954.0
20221206173008 74 0 0.0 0.0 0.00 0.00 0.00 81 954.0
20221206171946 74 0 0.0 0.0 0.00 0.00 0.00 81 954.0
20221206170922 74 0 0.0 0.0 0.00 0.00 0.00 80 954.0
20221206165859 75 0 0.0 0.0 0.00 0.00 0.00 78 954.0
20221206164837 75 0 0.0 0.0 0.00 0.00 0.00 79 954.0
20221206163814 75 0 0.0 0.0 0.00 0.00 0.00 79 954.0
20221206162750 74 0 0.0 0.0 0.00 0.00 0.00 79 954.0
20221206161727 75 0 0.0 0.0 0.00 0.00 0.00 77 954.0
20221206160703 75 0 0.0 0.0 0.00 0.00 0.00 78 954.0
20221206155640 75 0 0.0 0.0 0.00 0.00 0.00 78 954.0
20221206154617 75 0 0.0 0.0 0.00 0.00 0.00 78 954.0
20221206153552 75 0 0.0 0.0 0.00 0.00 0.00 78 954.0
20221206152529 75 0 0.0 0.0 0.00 0.00 0.00 79 954.0
20221206151506 75 0 0.0 0.0 0.00 0.00 0.00 78 954.0
20221206150443 75 0 0.0 0.0 0.00 0.00 0.00 79 954.0
20221206145420 75 0 0.0 0.0 0.00 0.00 0.00 78 954.0
20221206144357 75 0 0.0 0.0 0.00 0.00 0.00 79 954.0
20221206143334 75 0 0.0 0.0 0.00 0.00 0.00 79 954.0
20221206142311 76 0 0.0 0.0 0.00 0.00 0.00 78 954.0
20221206141248 76 0 0.0 0.0 0.00 0.00 0.00 77 954.0
20221206140225 76 0 0.0 0.0 0.00 0.00 0.00 80 954.0
20221206135200 76 0 0.0 0.0 0.00 0.00 0.00 80 954.0
20221206134133 76 0 0.0 0.0 0.00 0.00 0.00 80 954.0
20221206133110 76 0 0.0 0.0 0.00 0.00 0.00 78 954.0
20221206132046 77 0 0.0 0.0 0.00 0.00 0.00 77 954.0
20221206131022 77 0 0.0 0.0 0.00 0.00 0.00 75 954.0
20221206130000 77 0 0.0 0.0 0.00 0.00 0.00 75 954.0
20221206124937 78 0 0.0 0.0 0.00 0.00 0.00 75 954.0
20221206123914 77 0 0.0 0.0 0.00 0.00 0.00 77 953.0
20221206122851 78 0 0.0 0.0 0.00 0.00 0.00 76 953.0
20221206121827 78 0 0.0 0.0 0.00 0.00 0.00 73 953.0
20221206120803 78 0 0.0 0.0 0.00 0.00 0.00 76 953.0
20221206115741 79 0 0.0 0.0 0.00 0.00 0.00 75 953.0
20221206114715 79 0 0.0 0.0 0.00 0.00 0.00 75 953.0
20221206113647 80 0 0.0 0.0 0.00 0.00 0.00 73 953.0
20221206112622 81 0 0.0 0.0 0.00 0.00 0.00 67 953.0
20221206111558 81 0 0.0 0.0 0.00 0.00 0.00 65 952.0
20221206110532 80 0 0.0 0.0 0.00 0.00 0.00 65 952.0
20221206105503 80 0 0.0 0.0 0.00 0.00 0.00 66 952.0
20221206104431 81 0 0.0 0.0 0.00 0.00 0.00 65 952.0